createdAt,value
2019-02-05T00:02:26.204Z,22.17
2019-02-05T00:04:58.855Z,21.80
2019-02-05T00:07:30.869Z,23.87
2019-02-05T00:10:02.258Z,22.77
2019-02-05T00:12:33.850Z,24.10
2019-02-05T00:15:05.834Z,23.47
2019-02-05T00:17:38.810Z,22.10
2019-02-05T00:20:12.516Z,22.67
2019-02-05T00:22:45.368Z,23.13
2019-02-05T00:25:17.660Z,23.23
2019-02-05T00:27:49.598Z,22.77
2019-02-05T00:30:21.231Z,24.00
2019-02-05T00:32:52.640Z,22.67
2019-02-05T00:35:25.804Z,22.63
2019-02-05T00:37:57.280Z,22.03
2019-02-05T00:40:28.897Z,22.33
2019-02-05T00:43:00.225Z,22.03
2019-02-05T00:45:32.026Z,21.60
2019-02-05T00:48:04.893Z,22.60
2019-02-05T00:50:36.640Z,23.60
2019-02-05T00:53:08.587Z,22.50
2019-02-05T00:55:40.636Z,22.90
2019-02-05T00:58:13.203Z,21.77
2019-02-05T01:00:45.712Z,20.67
2019-02-05T01:03:17.441Z,23.00
2019-02-05T01:05:50.238Z,23.43
2019-02-05T01:08:22.133Z,25.27
2019-02-05T01:10:53.624Z,24.17
2019-02-05T01:13:25.398Z,24.67
2019-02-05T01:15:57.143Z,22.90
2019-02-05T01:18:28.910Z,28.57
2019-02-05T01:21:02.403Z,24.70
2019-02-05T01:23:34.280Z,22.57
2019-02-05T01:26:06.452Z,24.03
2019-02-05T01:28:38.156Z,24.00
2019-02-05T01:31:11.063Z,24.67
2019-02-05T01:33:42.848Z,22.80
2019-02-05T01:36:14.222Z,22.90
2019-02-05T01:38:48.535Z,23.23
2019-02-05T01:41:20.500Z,22.67
2019-02-05T01:43:54.277Z,23.60
2019-02-05T01:46:27.494Z,24.13
2019-02-05T01:49:00.780Z,24.83
2019-02-05T01:51:33.351Z,23.90
2019-02-05T01:54:04.999Z,23.80
2019-02-05T01:56:40.719Z,23.07
2019-02-05T01:59:09.814Z,22.13
2019-02-05T02:01:42.767Z,22.83
2019-02-05T02:04:14.162Z,22.60
2019-02-05T02:06:45.782Z,23.33
2019-02-05T02:09:17.409Z,22.87
2019-02-05T02:11:48.785Z,23.30
2019-02-05T02:14:20.294Z,23.33
2019-02-05T02:16:51.695Z,22.57
2019-02-05T02:19:23.165Z,23.00
2019-02-05T02:21:54.909Z,23.53
2019-02-05T02:24:27.257Z,22.83
2019-02-05T02:26:59.821Z,24.20
2019-02-05T02:29:31.209Z,23.63
2019-02-05T02:32:02.719Z,22.20
2019-02-05T02:34:35.582Z,23.27
2019-02-05T02:37:07.783Z,23.67
2019-02-05T02:39:39.409Z,22.23
2019-02-05T02:42:11.286Z,22.93
2019-02-05T02:44:42.991Z,23.40
2019-02-05T02:47:14.552Z,22.53
2019-02-05T02:49:46.662Z,22.77
2019-02-05T02:52:18.510Z,23.70
2019-02-05T02:54:51.589Z,23.90
2019-02-05T02:57:25.961Z,22.60
2019-02-05T02:59:57.845Z,22.23
2019-02-05T03:02:30.724Z,26.93
2019-02-05T03:05:02.148Z,30.83
2019-02-05T03:07:33.986Z,33.90
2019-02-05T03:10:07.720Z,27.97
2019-02-05T03:12:41.090Z,30.57
2019-02-05T03:15:13.157Z,27.20
2019-02-05T03:17:47.290Z,27.17
2019-02-05T03:20:19.282Z,23.47
2019-02-05T03:22:50.752Z,21.67
2019-02-05T03:25:23.268Z,22.47
2019-02-05T03:27:55.819Z,22.63
2019-02-05T03:30:27.503Z,22.67
2019-02-05T03:32:58.970Z,22.77
2019-02-05T03:35:30.346Z,21.93
2019-02-05T03:38:02.612Z,21.90
2019-02-05T03:41:01.702Z,21.30
2019-02-05T03:43:34.104Z,21.77
2019-02-05T03:46:18.743Z,21.30
2019-02-05T03:48:50.882Z,21.87
2019-02-05T03:51:52.856Z,24.00
2019-02-05T03:55:00.548Z,30.43
2019-02-05T03:58:25.117Z,25.23
2019-02-05T04:01:38.607Z,25.10
2019-02-05T04:04:57.185Z,24.37
2019-02-05T04:08:16.048Z,25.27
2019-02-05T04:11:20.945Z,24.20
2019-02-05T04:14:19.984Z,21.77
2019-02-05T04:17:40.438Z,25.23
2019-02-05T04:20:59.566Z,23.40
2019-02-05T04:24:18.587Z,25.33
2019-02-05T04:27:43.791Z,23.50
2019-02-05T04:30:42.128Z,24.13
2019-02-05T04:34:00.702Z,22.50
2019-02-05T04:37:14.945Z,22.63
2019-02-05T04:40:43.309Z,22.70
2019-02-05T04:43:52.956Z,22.03
2019-02-05T04:47:18.018Z,22.70
2019-02-05T04:50:11.946Z,23.33
2019-02-05T04:53:06.076Z,22.00
2019-02-05T04:56:02.863Z,20.73
2019-02-05T04:59:17.361Z,22.73
2019-02-05T05:02:34.427Z,22.47
2019-02-05T05:05:41.099Z,20.73
2019-02-05T05:09:16.047Z,22.20
2019-02-05T05:11:47.784Z,21.87
2019-02-05T05:14:19.652Z,22.33
2019-02-05T05:16:51.260Z,21.10
2019-02-05T05:19:23.705Z,22.53
2019-02-05T05:21:55.468Z,22.17
2019-02-05T05:24:27.135Z,21.80
2019-02-05T05:26:59.165Z,21.77
2019-02-05T05:29:33.145Z,22.37
2019-02-05T05:32:04.806Z,21.97
2019-02-05T05:34:38.323Z,22.87
2019-02-05T05:37:08.104Z,21.90
2019-02-05T05:39:39.507Z,21.13
2019-02-05T05:42:11.849Z,22.10
2019-02-05T05:44:45.294Z,22.20
2019-02-05T05:47:20.128Z,21.77
2019-02-05T05:49:51.971Z,23.40
2019-02-05T05:52:23.400Z,22.27
2019-02-05T05:54:55.084Z,22.17
2019-02-05T05:57:26.492Z,21.27
2019-02-05T05:59:57.970Z,24.43
2019-02-05T06:02:29.512Z,25.50
2019-02-05T06:05:01.095Z,21.40
2019-02-05T06:07:32.794Z,21.80
2019-02-05T06:10:07.192Z,21.20
2019-02-05T06:12:38.684Z,20.83
2019-02-05T06:15:11.706Z,20.17
2019-02-05T06:17:43.815Z,21.20
2019-02-05T06:20:17.327Z,20.40
2019-02-05T06:22:49.758Z,19.60
2019-02-05T06:25:21.336Z,20.13
2019-02-05T06:27:53.388Z,20.73
2019-02-05T06:30:24.759Z,20.47
2019-02-05T06:32:56.157Z,19.70
2019-02-05T06:35:28.068Z,19.70
2019-02-05T06:37:59.890Z,20.33
2019-02-05T06:40:31.795Z,20.67
2019-02-05T06:43:04.835Z,20.37
2019-02-05T06:45:36.505Z,19.63
2019-02-05T06:48:08.008Z,18.83
2019-02-05T06:50:39.746Z,19.13
2019-02-05T06:53:11.705Z,20.30
2019-02-05T06:55:43.040Z,20.00
2019-02-05T06:58:15.007Z,19.33
2019-02-05T07:00:46.474Z,19.27
2019-02-05T07:03:19.954Z,20.37
2019-02-05T07:05:51.995Z,19.23
2019-02-05T07:08:24.984Z,20.43
2019-02-05T07:10:57.379Z,19.17
2019-02-05T07:13:29.352Z,19.03
2019-02-05T07:16:02.124Z,19.77
2019-02-05T07:18:33.790Z,19.67
2019-02-05T07:21:05.448Z,18.93
2019-02-05T07:23:37.133Z,19.27
2019-02-05T07:26:10.024Z,18.40
2019-02-05T07:28:42.737Z,18.40
2019-02-05T07:31:14.298Z,19.23
2019-02-05T07:33:46.024Z,18.80
2019-02-05T07:36:17.516Z,18.70
2019-02-05T07:38:49.603Z,18.13
2019-02-05T07:41:21.465Z,17.87
2019-02-05T07:43:53.326Z,17.63
2019-02-05T07:46:25.287Z,19.07
2019-02-05T07:48:57.401Z,18.10
2019-02-05T07:51:29.342Z,19.70
2019-02-05T07:54:01.537Z,19.27
2019-02-05T07:56:33.051Z,19.90
2019-02-05T07:59:10.210Z,21.80
2019-02-05T08:01:42.322Z,21.03
2019-02-05T08:04:13.917Z,28.03
2019-02-05T08:06:45.399Z,19.17
2019-02-05T08:09:37.094Z,28.10
2019-02-05T08:12:09.399Z,26.33
2019-02-05T08:14:41.570Z,26.40
2019-02-05T08:17:14.378Z,20.07
2019-02-05T08:19:46.052Z,19.03
2019-02-05T08:22:18.898Z,24.77
2019-02-05T08:24:50.491Z,27.77
2019-02-05T08:27:23.677Z,26.90
2019-02-05T08:29:55.555Z,24.93
2019-02-05T08:32:27.577Z,24.57
2019-02-05T08:34:59.438Z,20.97
2019-02-05T08:37:31.004Z,20.00
2019-02-05T08:40:02.849Z,26.50
2019-02-05T08:42:34.841Z,22.80
2019-02-05T08:45:08.301Z,22.70
2019-02-05T08:47:39.759Z,19.50
2019-02-05T08:50:14.231Z,20.47
2019-02-05T08:52:45.861Z,18.17
2019-02-05T08:55:18.793Z,19.27
2019-02-05T08:57:51.153Z,20.07
2019-02-05T09:00:28.976Z,18.13
2019-02-05T09:03:01.260Z,17.77
2019-02-05T09:05:32.933Z,18.40
2019-02-05T09:08:04.977Z,20.73
2019-02-05T09:10:37.495Z,21.17
2019-02-05T09:13:09.263Z,16.70
2019-02-05T09:15:40.666Z,15.80
2019-02-05T09:18:12.517Z,14.93
2019-02-05T09:20:44.329Z,16.07
2019-02-05T09:23:15.986Z,14.77
2019-02-05T09:25:47.945Z,15.40
2019-02-05T09:28:19.927Z,15.50
2019-02-05T09:30:51.709Z,15.50
2019-02-05T09:33:24.470Z,15.33
2019-02-05T09:35:55.988Z,15.20
2019-02-05T09:38:28.052Z,14.80
2019-02-05T09:41:00.834Z,15.33
2019-02-05T09:43:32.626Z,14.43
2019-02-05T09:46:04.484Z,14.57
2019-02-05T09:48:36.242Z,14.57
2019-02-05T09:51:07.890Z,14.90
2019-02-05T09:53:39.760Z,15.40
2019-02-05T09:56:11.508Z,15.80
2019-02-05T09:58:43.202Z,15.20
2019-02-05T10:01:14.926Z,14.97
2019-02-05T10:03:46.678Z,14.70
2019-02-05T10:06:19.410Z,15.23
2019-02-05T10:08:51.393Z,14.93
2019-02-05T10:11:23.194Z,14.67
2019-02-05T10:13:54.872Z,14.73
2019-02-05T10:16:27.016Z,14.17
2019-02-05T10:18:58.775Z,14.10
2019-02-05T10:21:31.046Z,14.23
2019-02-05T10:24:02.675Z,14.07
2019-02-05T10:26:34.229Z,14.93
2019-02-05T10:29:08.479Z,14.80
2019-02-05T10:31:40.258Z,14.27
2019-02-05T10:34:13.679Z,15.10
2019-02-05T10:36:45.601Z,15.13
2019-02-05T10:39:17.753Z,14.83
2019-02-05T10:41:49.113Z,14.20
2019-02-05T10:44:22.513Z,15.37
2019-02-05T10:46:54.695Z,14.53
2019-02-05T10:49:26.391Z,15.10
2019-02-05T10:51:58.091Z,14.67
2019-02-05T10:54:29.771Z,14.63
2019-02-05T10:57:01.567Z,15.10
2019-02-05T10:59:33.307Z,14.30
2019-02-05T11:02:05.209Z,16.43
2019-02-05T11:04:55.183Z,23.50
2019-02-05T11:07:26.710Z,16.30
2019-02-05T11:10:00.042Z,16.97
2019-02-05T11:12:31.695Z,19.70
2019-02-05T11:15:03.363Z,18.63
2019-02-05T11:17:36.055Z,17.63
2019-02-05T11:20:11.463Z,16.00
2019-02-05T11:22:43.709Z,17.67
2019-02-05T11:25:17.156Z,17.67
2019-02-05T11:27:49.043Z,19.00
2019-02-05T11:30:26.046Z,15.83
2019-02-05T11:32:59.515Z,17.13
2019-02-05T11:35:31.416Z,16.90
2019-02-05T11:38:03.165Z,15.40
2019-02-05T11:40:36.711Z,20.73
2019-02-05T11:43:09.003Z,17.13
2019-02-05T11:45:40.950Z,19.60
2019-02-05T11:48:15.812Z,19.87
2019-02-05T11:50:48.694Z,16.50
2019-02-05T11:53:21.707Z,16.47
2019-02-05T11:55:53.617Z,15.57
2019-02-05T11:58:25.042Z,14.63
2019-02-05T12:01:03.814Z,15.47
2019-02-05T12:03:35.680Z,15.97
2019-02-05T12:06:08.841Z,14.43
2019-02-05T12:08:40.823Z,14.63
2019-02-05T12:11:12.283Z,17.63
2019-02-05T12:13:46.104Z,15.37
2019-02-05T12:16:18.781Z,15.13
2019-02-05T12:18:50.711Z,14.10
2019-02-05T12:21:22.395Z,14.23
2019-02-05T12:23:54.586Z,17.63
2019-02-05T12:26:26.325Z,18.93
2019-02-05T12:28:58.024Z,16.10
2019-02-05T12:31:29.529Z,14.70
2019-02-05T12:34:01.344Z,17.33
2019-02-05T12:36:33.522Z,15.60
2019-02-05T12:39:13.083Z,14.87
2019-02-05T12:41:46.135Z,16.27
2019-02-05T12:44:17.814Z,14.03
2019-02-05T12:46:49.814Z,14.17
2019-02-05T12:49:23.394Z,15.00
2019-02-05T12:51:55.795Z,13.63
2019-02-05T12:54:27.490Z,14.20
2019-02-05T12:56:59.905Z,12.63
2019-02-05T12:59:31.566Z,11.40
2019-02-05T13:02:03.587Z,11.53
2019-02-05T13:04:35.588Z,10.87
2019-02-05T13:07:07.322Z,12.83
2019-02-05T13:09:39.400Z,12.77
2019-02-05T13:12:11.461Z,13.10
2019-02-05T13:14:43.423Z,10.53
2019-02-05T13:17:15.230Z,10.23
2019-02-05T13:19:48.566Z,13.20
2019-02-05T13:22:20.180Z,13.70
2019-02-05T13:24:52.222Z,13.53
2019-02-05T13:27:23.885Z,11.50
2019-02-05T13:29:55.579Z,10.67
2019-02-05T13:32:27.215Z,10.97
2019-02-05T13:34:59.150Z,13.50
2019-02-05T13:37:30.858Z,11.40
2019-02-05T13:40:02.883Z,10.73
2019-02-05T13:42:34.713Z,10.60
2019-02-05T13:45:07.628Z,11.30
2019-02-05T13:47:39.212Z,10.67
2019-02-05T13:50:14.712Z,11.43
2019-02-05T13:52:48.346Z,11.30
2019-02-05T13:55:22.359Z,10.93
2019-02-05T13:57:55.181Z,10.60
2019-02-05T14:00:29.953Z,10.27
2019-02-05T14:03:02.161Z,11.27
2019-02-05T14:05:33.802Z,10.43
2019-02-05T14:08:06.087Z,10.17
2019-02-05T14:10:38.558Z,10.00
2019-02-05T14:13:10.597Z,10.20
2019-02-05T14:15:43.500Z,9.80
2019-02-05T14:18:15.234Z,10.20
2019-02-05T14:20:47.550Z,10.03
2019-02-05T14:23:19.084Z,10.73
2019-02-05T14:25:50.830Z,10.17
2019-02-05T14:28:23.060Z,10.77
2019-02-05T14:30:58.354Z,10.90
2019-02-05T14:33:31.675Z,10.37
2019-02-05T14:36:03.549Z,10.50
2019-02-05T14:38:35.557Z,10.43
2019-02-05T14:41:08.290Z,11.50
2019-02-05T14:43:40.189Z,10.80
2019-02-05T14:46:13.191Z,10.80
2019-02-05T14:48:45.236Z,10.90
2019-02-05T14:51:19.903Z,10.80
2019-02-05T14:53:51.534Z,10.87
2019-02-05T14:56:23.586Z,10.80
2019-02-05T14:58:55.310Z,10.27
2019-02-05T15:01:27.064Z,10.17
2019-02-05T15:04:01.170Z,9.50
2019-02-05T15:06:33.229Z,10.10
2019-02-05T15:09:05.698Z,10.30
2019-02-05T15:11:38.186Z,10.90
2019-02-05T15:14:19.724Z,10.23
2019-02-05T15:16:55.224Z,10.50
2019-02-05T15:19:27.990Z,10.37
2019-02-05T15:21:59.953Z,10.87
2019-02-05T15:24:37.933Z,10.70
2019-02-05T15:27:04.905Z,10.53
2019-02-05T15:29:36.679Z,10.73
2019-02-05T15:32:09.017Z,10.83
2019-02-05T15:34:40.991Z,11.27
2019-02-05T15:37:13.528Z,10.97
2019-02-05T15:39:47.061Z,11.27
2019-02-05T15:42:19.979Z,10.87
2019-02-05T15:44:52.335Z,11.47
2019-02-05T15:47:25.604Z,11.10
2019-02-05T15:50:05.776Z,12.13
2019-02-05T15:52:33.169Z,13.30
2019-02-05T15:55:06.142Z,12.77
2019-02-05T15:57:39.021Z,13.00
2019-02-05T16:00:12.391Z,12.90
2019-02-05T16:02:44.705Z,13.37
2019-02-05T16:05:16.521Z,14.67
2019-02-05T16:07:48.233Z,15.23
2019-02-05T16:10:20.055Z,15.23
2019-02-05T16:12:51.859Z,14.53
2019-02-05T16:15:23.645Z,14.87
2019-02-05T16:17:55.529Z,15.23
2019-02-05T16:20:28.704Z,15.10
2019-02-05T16:23:00.271Z,16.03
2019-02-05T16:25:32.023Z,15.50
2019-02-05T16:28:03.716Z,16.10
2019-02-05T16:30:37.315Z,15.43
2019-02-05T16:33:10.755Z,16.10
2019-02-05T16:35:42.868Z,16.83
2019-02-05T16:38:14.747Z,14.77
2019-02-05T16:40:47.155Z,15.90
2019-02-05T16:43:19.908Z,15.83
2019-02-05T16:45:52.193Z,15.70
2019-02-05T16:48:23.708Z,15.57
2019-02-05T16:50:55.796Z,15.43
2019-02-05T16:53:27.447Z,14.27
2019-02-05T16:55:59.179Z,13.97
2019-02-05T16:58:31.256Z,12.93
2019-02-05T17:01:03.136Z,13.10
2019-02-05T17:03:37.251Z,12.60
2019-02-05T17:06:08.842Z,12.30
2019-02-05T17:08:40.956Z,12.00
2019-02-05T17:11:12.932Z,12.07
2019-02-05T17:13:44.476Z,12.10
2019-02-05T17:16:16.151Z,11.87
2019-02-05T17:18:49.456Z,11.60
2019-02-05T17:21:22.174Z,11.17
2019-02-05T17:23:55.244Z,11.00
2019-02-05T17:26:27.877Z,10.53
2019-02-05T17:28:59.444Z,11.07
2019-02-05T17:31:31.071Z,8.37
2019-02-05T17:34:02.871Z,7.63
2019-02-05T17:36:36.384Z,8.70
2019-02-05T17:39:11.874Z,8.40
2019-02-05T17:41:48.428Z,9.33
2019-02-05T17:44:20.302Z,9.43
2019-02-05T17:46:52.854Z,8.80
2019-02-05T17:49:24.856Z,10.17
2019-02-05T17:51:56.915Z,8.07
2019-02-05T17:54:30.782Z,8.20
2019-02-05T17:57:07.667Z,6.70
2019-02-05T17:59:43.158Z,6.63
2019-02-05T18:02:15.716Z,6.80
2019-02-05T18:04:49.165Z,7.43
2019-02-05T18:07:21.153Z,6.40
2019-02-05T18:09:53.329Z,8.00
2019-02-05T18:12:25.057Z,9.20
2019-02-05T18:14:57.109Z,13.00
2019-02-05T18:17:28.957Z,12.10
2019-02-05T18:20:00.693Z,7.33
2019-02-05T18:22:32.714Z,7.47
2019-02-05T18:25:05.267Z,4.57
2019-02-05T18:27:37.940Z,5.53
2019-02-05T18:30:16.793Z,3.90
2019-02-05T18:32:51.017Z,8.93
2019-02-05T18:35:23.687Z,4.43
2019-02-05T18:37:55.622Z,4.30
2019-02-05T18:40:27.730Z,4.80
2019-02-05T18:42:59.367Z,6.83
2019-02-05T18:45:31.126Z,5.57
2019-02-05T18:48:02.820Z,6.60
2019-02-05T18:50:34.551Z,11.70
2019-02-05T18:53:07.813Z,16.87
2019-02-05T18:55:39.881Z,25.20
2019-02-05T18:58:14.600Z,14.77
2019-02-05T19:00:46.335Z,10.67
2019-02-05T19:03:18.049Z,10.50
2019-02-05T19:05:49.985Z,7.63
2019-02-05T19:08:21.589Z,7.30
2019-02-05T19:10:53.230Z,10.57
2019-02-05T19:13:24.768Z,13.60
2019-02-05T19:15:58.107Z,8.83
2019-02-05T19:18:29.819Z,7.67
2019-02-05T19:21:01.711Z,7.50
2019-02-05T19:23:34.707Z,5.30
2019-02-05T19:26:13.549Z,5.70
2019-02-05T19:28:46.549Z,5.67
2019-02-05T19:31:38.802Z,5.80
2019-02-05T19:34:11.215Z,5.77
2019-02-05T19:36:43.836Z,5.60
2019-02-05T19:39:15.704Z,5.80
2019-02-05T19:41:47.251Z,6.20
2019-02-05T19:44:20.630Z,6.17
2019-02-05T19:46:59.577Z,6.57
2019-02-05T19:49:33.419Z,6.80
2019-02-05T19:52:05.585Z,7.17
2019-02-05T19:54:37.241Z,7.17
2019-02-05T19:57:08.946Z,7.13
2019-02-05T19:59:42.332Z,7.30
2019-02-05T20:02:13.960Z,7.17
2019-02-05T20:04:45.585Z,8.03
2019-02-05T20:07:17.088Z,7.30
2019-02-05T20:09:48.718Z,7.13
2019-02-05T20:12:22.070Z,6.87
2019-02-05T20:14:53.896Z,7.03
2019-02-05T20:17:27.819Z,6.83
2019-02-05T20:20:00.740Z,7.87
2019-02-05T20:22:33.792Z,7.50
2019-02-05T20:25:06.324Z,8.13
2019-02-05T20:27:39.452Z,8.00
2019-02-05T20:30:13.532Z,8.33
2019-02-05T20:32:45.446Z,7.93
2019-02-05T20:35:17.336Z,7.97
2019-02-05T20:37:49.487Z,8.73
2019-02-05T20:40:21.168Z,9.07
2019-02-05T20:42:53.173Z,8.30
2019-02-05T20:45:26.931Z,8.37
2019-02-05T20:47:58.671Z,8.50
2019-02-05T20:50:32.350Z,8.67
2019-02-05T20:53:13.553Z,8.97
2019-02-05T20:55:37.509Z,9.03
2019-02-05T20:58:10.372Z,9.60
2019-02-05T21:00:42.275Z,9.27
2019-02-05T21:03:14.078Z,9.20
2019-02-05T21:05:47.007Z,9.77
2019-02-05T21:08:18.718Z,10.10
2019-02-05T21:10:51.609Z,9.83
2019-02-05T21:13:27.967Z,9.23
2019-02-05T21:16:00.703Z,9.50
2019-02-05T21:18:33.121Z,10.07
2019-02-05T21:21:06.475Z,9.70
2019-02-05T21:23:38.239Z,10.20
2019-02-05T21:26:09.836Z,9.83
2019-02-05T21:28:41.608Z,10.33
2019-02-05T21:31:15.269Z,10.40
2019-02-05T21:33:47.009Z,10.07
2019-02-05T21:36:20.075Z,9.83
2019-02-05T21:38:53.381Z,10.53
2019-02-05T21:41:25.639Z,10.63
2019-02-05T21:43:57.083Z,10.90
2019-02-05T21:46:28.689Z,10.60
2019-02-05T21:49:00.435Z,10.90
2019-02-05T21:51:40.283Z,10.97
2019-02-05T21:54:06.770Z,12.43
2019-02-05T21:56:38.952Z,11.97
2019-02-05T21:59:11.006Z,11.60
2019-02-05T22:01:43.286Z,10.97
2019-02-05T22:04:26.414Z,11.50
2019-02-05T22:06:48.162Z,11.07
2019-02-05T22:09:19.869Z,11.47
2019-02-05T22:11:51.758Z,11.00
2019-02-05T22:14:23.372Z,11.33
2019-02-05T22:16:57.212Z,11.50
2019-02-05T22:19:29.168Z,10.23
2019-02-05T22:22:00.843Z,11.10
2019-02-05T22:24:32.312Z,10.33
2019-02-05T22:27:04.514Z,10.77
2019-02-05T22:29:36.278Z,10.80
2019-02-05T22:32:08.390Z,10.37
2019-02-05T22:34:39.917Z,10.40
2019-02-05T22:37:11.738Z,9.87
2019-02-05T22:39:43.890Z,10.50
2019-02-05T22:42:15.462Z,10.60
2019-02-05T22:44:47.309Z,18.60
2019-02-05T22:47:20.581Z,15.13
2019-02-05T22:49:55.742Z,14.40
2019-02-05T22:52:27.398Z,8.83
2019-02-05T22:55:00.483Z,8.73
2019-02-05T22:57:32.747Z,8.53
2019-02-05T23:00:08.276Z,9.77
2019-02-05T23:02:40.428Z,9.80
2019-02-05T23:05:38.338Z,10.97
2019-02-05T23:08:10.794Z,20.30
2019-02-05T23:11:17.677Z,14.47
2019-02-05T23:13:51.789Z,10.07
2019-02-05T23:16:23.361Z,13.93
2019-02-05T23:18:56.208Z,13.87
2019-02-05T23:21:27.659Z,15.23
2019-02-05T23:23:59.553Z,10.90
2019-02-05T23:26:31.641Z,12.00
2019-02-05T23:29:04.021Z,16.90
2019-02-05T23:31:35.728Z,14.60
2019-02-05T23:34:07.112Z,14.00
2019-02-05T23:36:39.488Z,12.53
2019-02-05T23:39:11.806Z,13.23
2019-02-05T23:41:43.235Z,11.57
2019-02-05T23:44:14.585Z,11.97
2019-02-05T23:46:46.264Z,14.93
2019-02-05T23:49:19.370Z,10.73
2019-02-05T23:51:51.256Z,10.10
2019-02-05T23:54:24.525Z,10.07
2019-02-05T23:56:56.041Z,10.07
2019-02-05T23:59:29.173Z,10.27
